Time;durP1;ratioP1;P1;durP2;ratioP2;P2;SDS_P1;SDS_P2;PMS_P1;PMS_P2;Temp;Humidity;BMP_temperature;BMP_pressure;BME280_temperature;BME280_humidity;BME280_pressure;Samples;Min_cycle;Max_cycle;Signal;HPM_P1;HPM_P2
2022/01/27 00:06:37;;;;;;;;;;;5.60;99.90;;;;;;4991026;28;19929;-61
2022/01/27 00:11:44;;;;;;;;;;;5.60;99.90;;;;;;5006783;28;20020;-61
2022/01/27 00:14:11;;;;;;;;;;;5.60;99.90;;;;;;4999237;28;19930;-58
2022/01/27 00:16:41;;;;;;;;;;;5.60;99.90;;;;;;4986967;28;19941;-58
2022/01/27 00:19:08;;;;;;;;;;;5.50;99.90;;;;;;4982505;28;19933;-58
2022/01/27 00:21:34;;;;;;;;;;;5.60;99.90;;;;;;4986899;28;19973;-57
2022/01/27 00:23:59;;;;;;;;;;;5.60;99.90;;;;;;4987197;28;19991;-58
2022/01/27 00:26:25;;;;;;;;;;;5.60;99.90;;;;;;4986620;28;20470;-58
2022/01/27 00:28:51;;;;;;;;;;;5.70;99.90;;;;;;4997463;28;19929;-57
2022/01/27 00:31:18;;;;;;;;;;;5.50;99.90;;;;;;5073578;28;19933;-58
2022/01/27 00:33:44;;;;;;;;;;;5.60;99.90;;;;;;4993401;28;20321;-58
2022/01/27 00:36:10;;;;;;;;;;;5.60;99.90;;;;;;4986698;28;20294;-57
2022/01/27 00:38:35;;;;;;;;;;;5.60;99.90;;;;;;4986675;28;19930;-60
2022/01/27 00:41:01;;;;;;;;;;;5.60;99.90;;;;;;4987000;28;20488;-58
2022/01/27 00:43:26;;;;;;;;;;;5.90;99.90;;;;;;4986859;28;20317;-58
2022/01/27 00:45:52;;;;;;;;;;;5.70;99.90;;;;;;4986761;28;19936;-58
2022/01/27 00:48:18;;;;;;;;;;;5.60;99.90;;;;;;4985984;28;19926;-59
2022/01/27 00:50:57;;;;;;;;;;;5.60;99.90;;;;;;4984986;28;19930;-57
2022/01/27 00:53:40;;;;;;;;;;;5.60;99.90;;;;;;4986794;28;19982;-58
2022/01/27 00:56:23;;;;;;;;;;;5.60;99.90;;;;;;4985225;28;19937;-59
2022/01/27 00:58:58;;;;;;;;;;;5.60;99.90;;;;;;4985391;28;20393;-58
2022/01/27 01:01:29;;;;;;;;;;;6.30;99.90;;;;;;4984879;28;20317;-64
2022/01/27 01:03:58;;;;;;;;;;;5.60;99.90;;;;;;4985385;28;19930;-59
2022/01/27 01:06:34;;;;;;;;;;;6.40;99.90;;;;;;4993163;28;21195;-58
2022/01/27 01:17:01;;;;;;;;;;;5.60;99.90;;;;;;4986066;28;19929;-65
2022/01/27 01:32:16;;;;;;;;;;;5.50;99.90;;;;;;4985902;28;19931;-59
2022/01/27 01:34:46;;;;;;;;;;;5.50;99.90;;;;;;4984377;28;19930;-58
2022/01/27 01:37:12;;;;;;;;;;;5.50;99.90;;;;;;4986253;28;19930;-58
2022/01/27 01:39:37;;;;;;;;;;;5.70;99.90;;;;;;4985651;28;19933;-58
2022/01/27 01:42:04;;;;;;;;;;;6.10;99.90;;;;;;4983709;28;19930;-58
2022/01/27 01:44:30;;;;;;;;;;;5.50;99.90;;;;;;4985200;28;19929;-57
2022/01/27 01:46:56;;;;;;;;;;;5.60;99.90;;;;;;4984250;28;19930;-58
2022/01/27 01:49:26;;;;;;;;;;;5.40;99.90;;;;;;4985942;28;20484;-58
2022/01/27 01:51:51;;;;;;;;;;;5.40;99.90;;;;;;4985317;28;20436;-58
2022/01/27 01:54:17;;;;;;;;;;;5.20;99.90;;;;;;4985724;28;20020;-57
2022/01/27 01:56:43;;;;;;;;;;;5.30;99.90;;;;;;4985199;28;19929;-58
2022/01/27 01:59:09;;;;;;;;;;;5.30;99.90;;;;;;4986073;28;19965;-57
2022/01/27 02:01:35;;;;;;;;;;;5.30;99.90;;;;;;4972552;28;19989;-57
2022/01/27 02:04:05;;;;;;;;;;;5.70;99.90;;;;;;4984167;28;19975;-58
2022/01/27 02:06:37;;;;;;;;;;;5.30;99.90;;;;;;4992051;28;19929;-58
2022/01/27 02:19:41;;;;;;;;;;;5.40;99.90;;;;;;4985444;28;20435;-58
2022/01/27 02:22:07;;;;;;;;;;;5.40;99.90;;;;;;4988513;28;19952;-60
2022/01/27 02:24:33;;;;;;;;;;;5.30;99.90;;;;;;4989125;28;20027;-60
2022/01/27 02:26:59;;;;;;;;;;;5.30;99.90;;;;;;4988285;28;20463;-58
2022/01/27 02:29:26;;;;;;;;;;;5.30;99.90;;;;;;4989024;28;20016;-60
2022/01/27 02:31:53;;;;;;;;;;;5.30;99.90;;;;;;4988274;28;19937;-59
2022/01/27 02:34:19;;;;;;;;;;;5.30;99.90;;;;;;4988021;28;20008;-61
2022/01/27 02:36:45;;;;;;;;;;;5.30;99.90;;;;;;4986524;28;19934;-62
2022/01/27 02:39:10;;;;;;;;;;;5.40;99.90;;;;;;4988681;28;19937;-61
2022/01/27 02:41:41;;;;;;;;;;;5.40;99.90;;;;;;4988008;28;20153;-58
2022/01/27 02:44:07;;;;;;;;;;;5.40;99.90;;;;;;4988699;28;19933;-57
2022/01/27 02:46:51;;;;;;;;;;;5.40;99.90;;;;;;4988076;28;19937;-58
2022/01/27 02:49:17;;;;;;;;;;;5.40;99.90;;;;;;4989033;28;19934;-58
2022/01/27 02:51:43;;;;;;;;;;;5.40;99.90;;;;;;4987550;28;19930;-58
2022/01/27 02:54:08;;;;;;;;;;;6.60;99.90;;;;;;4988657;28;19930;-58
2022/01/27 02:56:34;;;;;;;;;;;5.50;99.90;;;;;;4987783;28;19979;-58
2022/01/27 02:58:59;;;;;;;;;;;5.50;99.90;;;;;;4988699;28;19926;-58
2022/01/27 03:01:25;;;;;;;;;;;5.50;99.90;;;;;;4976093;28;19977;-57
2022/01/27 03:03:51;;;;;;;;;;;5.60;99.90;;;;;;4979025;28;19937;-57
2022/01/27 03:06:16;;;;;;;;;;;5.50;99.90;;;;;;4996253;28;19948;-58
2022/01/27 03:08:42;;;;;;;;;;;6.30;99.90;;;;;;5007835;28;19994;-58
2022/01/27 03:11:11;;;;;;;;;;;5.60;99.90;;;;;;5006228;28;19960;-58
2022/01/27 03:13:37;;;;;;;;;;;5.60;99.90;;;;;;4994525;28;20012;-58
2022/01/27 03:16:06;;;;;;;;;;;6.00;99.90;;;;;;4987181;28;20017;-58
2022/01/27 03:18:31;;;;;;;;;;;5.60;99.90;;;;;;4988582;28;19930;-58
2022/01/27 03:20:57;;;;;;;;;;;5.60;99.90;;;;;;4988120;28;19929;-57
2022/01/27 03:23:22;;;;;;;;;;;5.60;99.90;;;;;;4986257;28;20394;-60
2022/01/27 03:25:48;;;;;;;;;;;5.60;99.90;;;;;;4987719;28;20042;-58
2022/01/27 03:28:14;;;;;;;;;;;5.60;99.90;;;;;;4987421;28;19930;-57
2022/01/27 03:30:40;;;;;;;;;;;5.90;99.90;;;;;;5075247;28;19928;-57
2022/01/27 03:33:06;;;;;;;;;;;5.60;99.90;;;;;;5011847;28;19989;-58
2022/01/27 03:35:32;;;;;;;;;;;5.60;99.90;;;;;;5007238;28;19933;-58
2022/01/27 03:37:57;;;;;;;;;;;5.60;99.90;;;;;;5007256;28;19936;-58
2022/01/27 03:40:23;;;;;;;;;;;5.60;99.90;;;;;;4988989;28;19976;-58
2022/01/27 03:43:02;;;;;;;;;;;5.70;99.90;;;;;;4986831;28;19930;-59
2022/01/27 03:45:28;;;;;;;;;;;5.70;99.90;;;;;;4987224;28;20674;-58
2022/01/27 03:47:54;;;;;;;;;;;5.70;99.90;;;;;;4987659;28;20447;-58
2022/01/27 03:50:19;;;;;;;;;;;5.70;99.90;;;;;;4987627;28;20555;-58
2022/01/27 03:52:45;;;;;;;;;;;5.70;99.90;;;;;;4987601;28;19971;-57
2022/01/27 03:55:10;;;;;;;;;;;5.70;99.90;;;;;;4987684;28;19936;-58
2022/01/27 03:57:36;;;;;;;;;;;5.70;99.90;;;;;;4976451;28;19938;-59
2022/01/27 04:00:03;;;;;;;;;;;5.70;99.90;;;;;;4968445;28;20154;-57
2022/01/27 04:02:29;;;;;;;;;;;5.70;99.90;;;;;;4967207;28;20473;-59
2022/01/27 04:04:55;;;;;;;;;;;5.70;99.90;;;;;;4986895;28;19977;-58
2022/01/27 04:07:20;;;;;;;;;;;5.80;99.90;;;;;;5005161;28;19933;-58
2022/01/27 04:09:46;;;;;;;;;;;5.70;99.90;;;;;;5006917;28;20395;-58
2022/01/27 04:12:11;;;;;;;;;;;5.70;99.90;;;;;;5006654;28;20054;-57
2022/01/27 04:14:37;;;;;;;;;;;5.80;99.90;;;;;;5007152;28;19948;-58
2022/01/27 04:17:03;;;;;;;;;;;6.00;99.90;;;;;;4987713;28;20324;-58
2022/01/27 04:19:28;;;;;;;;;;;5.70;99.90;;;;;;4987256;28;19975;-58
2022/01/27 04:21:54;;;;;;;;;;;5.80;99.90;;;;;;4987197;28;20389;-58
2022/01/27 04:24:19;;;;;;;;;;;5.70;99.90;;;;;;4986925;28;20403;-58
2022/01/27 04:26:50;;;;;;;;;;;5.80;99.90;;;;;;4986418;28;19936;-58
2022/01/27 04:29:19;;;;;;;;;;;5.80;99.90;;;;;;5013241;28;19935;-58
2022/01/27 04:31:46;;;;;;;;;;;5.80;99.90;;;;;;5004117;28;20371;-58
2022/01/27 04:34:12;;;;;;;;;;;5.80;99.90;;;;;;5006548;28;20012;-58
2022/01/27 04:36:40;;;;;;;;;;;5.80;99.90;;;;;;5006312;28;19937;-58
2022/01/27 04:41:59;;;;;;;;;;;5.80;99.90;;;;;;4986604;28;20391;-58
2022/01/27 04:44:37;;;;;;;;;;;6.00;99.90;;;;;;4986130;28;20368;-58
2022/01/27 04:47:12;;;;;;;;;;;5.80;99.90;;;;;;4986196;28;20379;-58
2022/01/27 04:49:38;;;;;;;;;;;5.80;99.90;;;;;;4986316;28;20356;-59
2022/01/27 04:52:04;;;;;;;;;;;5.80;99.90;;;;;;4985082;28;20360;-58
2022/01/27 04:54:37;;;;;;;;;;;5.80;99.90;;;;;;4985259;28;19976;-58
2022/01/27 04:57:04;;;;;;;;;;;5.80;99.90;;;;;;4986420;28;19968;-57
2022/01/27 04:59:36;;;;;;;;;;;5.80;99.90;;;;;;4983169;28;19988;-59
2022/01/27 05:02:06;;;;;;;;;;;5.80;99.90;;;;;;4982179;28;20408;-58
2022/01/27 05:04:37;;;;;;;;;;;5.80;99.90;;;;;;4986447;28;20016;-57
2022/01/27 05:07:02;;;;;;;;;;;5.80;99.90;;;;;;4993010;28;20295;-58
2022/01/27 05:09:28;;;;;;;;;;;5.80;99.90;;;;;;4986146;28;19930;-58
2022/01/27 05:11:59;;;;;;;;;;;6.10;99.90;;;;;;4986772;28;19936;-61
2022/01/27 05:14:25;;;;;;;;;;;5.80;99.90;;;;;;4985681;28;19953;-61
2022/01/27 05:16:52;;;;;;;;;;;5.80;99.90;;;;;;4986316;28;20299;-59
2022/01/27 05:19:17;;;;;;;;;;;5.80;99.90;;;;;;4986166;28;19933;-61
2022/01/27 05:21:43;;;;;;;;;;;5.80;99.90;;;;;;4986120;28;20393;-61
2022/01/27 05:24:09;;;;;;;;;;;5.80;99.90;;;;;;4985905;28;20032;-59
2022/01/27 05:26:35;;;;;;;;;;;5.80;99.90;;;;;;4986497;28;19951;-64
2022/01/27 05:29:02;;;;;;;;;;;5.80;99.90;;;;;;5002603;28;19928;-57
2022/01/27 05:31:28;;;;;;;;;;;6.00;99.90;;;;;;5066468;28;20006;-66
2022/01/27 05:33:53;;;;;;;;;;;6.20;99.90;;;;;;5005535;28;20411;-68
2022/01/27 05:36:20;;;;;;;;;;;5.70;99.90;;;;;;5005838;28;19933;-66
2022/01/27 05:38:45;;;;;;;;;;;5.70;99.90;;;;;;4999031;28;19930;-67
2022/01/27 05:41:13;;;;;;;;;;;5.70;99.90;;;;;;4986053;28;19930;-68
2022/01/27 05:43:38;;;;;;;;;;;5.70;99.90;;;;;;4985216;28;19937;-70
2022/01/27 05:46:04;;;;;;;;;;;5.70;99.90;;;;;;4985417;28;19929;-62
2022/01/27 05:48:29;;;;;;;;;;;5.70;99.90;;;;;;4986171;28;19979;-68
2022/01/27 05:50:56;;;;;;;;;;;5.60;99.90;;;;;;4984518;28;19934;-68
2022/01/27 05:53:22;;;;;;;;;;;5.70;99.90;;;;;;4986419;28;19934;-65
2022/01/27 05:55:48;;;;;;;;;;;5.60;99.90;;;;;;4989185;28;19929;-64
2022/01/27 05:58:14;;;;;;;;;;;5.60;99.90;;;;;;4987423;28;19936;-69
2022/01/27 06:00:39;;;;;;;;;;;5.60;99.90;;;;;;4983254;28;20028;-66
2022/01/27 06:03:05;;;;;;;;;;;5.60;99.90;;;;;;4973506;28;19975;-64
2022/01/27 06:05:30;;;;;;;;;;;5.70;99.90;;;;;;4991642;28;20283;-60
2022/01/27 06:07:56;;;;;;;;;;;5.70;99.90;;;;;;5007315;28;19964;-59
2022/01/27 06:10:21;;;;;;;;;;;5.60;99.90;;;;;;5007030;28;19937;-62
2022/01/27 06:12:51;;;;;;;;;;;5.70;99.90;;;;;;4994295;28;19936;-66
2022/01/27 06:15:17;;;;;;;;;;;5.70;99.90;;;;;;4988287;28;19940;-63
2022/01/27 06:17:43;;;;;;;;;;;5.70;99.90;;;;;;4988884;28;19929;-59
2022/01/27 06:20:09;;;;;;;;;;;6.90;99.90;;;;;;4988864;28;19933;-57
2022/01/27 06:22:34;;;;;;;;;;;5.70;99.90;;;;;;4989004;28;20027;-58
2022/01/27 06:25:00;;;;;;;;;;;5.70;99.90;;;;;;4988835;28;19929;-58
2022/01/27 06:27:25;;;;;;;;;;;5.70;99.90;;;;;;4987410;28;19930;-57
2022/01/27 06:29:51;;;;;;;;;;;5.70;99.90;;;;;;5040750;28;19927;-57
2022/01/27 06:32:17;;;;;;;;;;;5.80;99.90;;;;;;5041362;28;19934;-57
2022/01/27 06:34:42;;;;;;;;;;;5.80;99.90;;;;;;5008404;28;19929;-57
2022/01/27 06:37:08;;;;;;;;;;;5.80;99.90;;;;;;5008304;28;19970;-58
2022/01/27 06:39:33;;;;;;;;;;;5.80;99.90;;;;;;4996680;28;20394;-57
2022/01/27 06:42:01;;;;;;;;;;;5.80;99.90;;;;;;4988525;28;20287;-58
2022/01/27 06:44:27;;;;;;;;;;;5.80;99.90;;;;;;4988278;28;20418;-58
2022/01/27 06:46:52;;;;;;;;;;;5.80;99.90;;;;;;4987885;28;19952;-58
2022/01/27 06:49:18;;;;;;;;;;;5.90;99.90;;;;;;4988329;28;20325;-58
2022/01/27 06:51:44;;;;;;;;;;;5.90;99.90;;;;;;4988007;28;19934;-58
2022/01/27 06:54:10;;;;;;;;;;;5.90;99.90;;;;;;4988389;28;20477;-59
2022/01/27 06:56:35;;;;;;;;;;;5.90;99.90;;;;;;4988312;28;19930;-57
2022/01/27 06:59:01;;;;;;;;;;;5.90;99.90;;;;;;4987538;28;19929;-61
2022/01/27 07:01:26;;;;;;;;;;;5.90;99.90;;;;;;4974185;28;19934;-61
2022/01/27 07:03:52;;;;;;;;;;;6.00;99.90;;;;;;4979216;28;19930;-62
2022/01/27 07:06:18;;;;;;;;;;;6.00;99.90;;;;;;4996556;28;19936;-57
2022/01/27 07:08:43;;;;;;;;;;;6.20;99.90;;;;;;4985373;28;20363;-57
2022/01/27 07:11:09;;;;;;;;;;;6.00;99.90;;;;;;4992666;28;19928;-59
2022/01/27 07:13:40;;;;;;;;;;;6.00;99.90;;;;;;5003976;28;19937;-62
2022/01/27 07:16:06;;;;;;;;;;;6.00;99.90;;;;;;4985429;28;19929;-61
2022/01/27 07:18:32;;;;;;;;;;;6.60;99.90;;;;;;4979195;28;19930;-58
2022/01/27 07:20:57;;;;;;;;;;;6.10;99.90;;;;;;4985300;28;19956;-62
2022/01/27 07:23:23;;;;;;;;;;;6.10;99.90;;;;;;4985096;28;20013;-59
2022/01/27 07:25:52;;;;;;;;;;;6.10;99.90;;;;;;4986334;28;19930;-57
2022/01/27 07:28:17;;;;;;;;;;;6.10;99.90;;;;;;5046237;28;19977;-61
2022/01/27 07:30:43;;;;;;;;;;;6.10;99.90;;;;;;4968827;28;19930;-60
2022/01/27 07:33:08;;;;;;;;;;;6.20;99.90;;;;;;4982250;28;20012;-58
2022/01/27 07:35:34;;;;;;;;;;;6.20;99.90;;;;;;4978392;28;19975;-59
2022/01/27 07:38:00;;;;;;;;;;;6.20;99.90;;;;;;4958500;28;19930;-58
2022/01/27 07:40:25;;;;;;;;;;;6.20;99.90;;;;;;5011001;28;19950;-57
2022/01/27 07:42:51;;;;;;;;;;;6.30;99.90;;;;;;4968033;28;19961;-58
2022/01/27 07:45:16;;;;;;;;;;;6.30;99.90;;;;;;4982038;28;19934;-57
2022/01/27 07:47:42;;;;;;;;;;;6.80;99.90;;;;;;4986367;28;19936;-58
2022/01/27 07:50:08;;;;;;;;;;;6.40;99.90;;;;;;4980771;28;20045;-58
2022/01/27 07:52:33;;;;;;;;;;;6.40;99.90;;;;;;4973176;28;20403;-61
2022/01/27 07:54:59;;;;;;;;;;;6.40;99.90;;;;;;4973995;28;20478;-57
2022/01/27 07:57:24;;;;;;;;;;;6.40;99.90;;;;;;4980810;28;19929;-61
2022/01/27 07:59:50;;;;;;;;;;;6.50;99.90;;;;;;4986558;28;19944;-63
2022/01/27 08:02:15;;;;;;;;;;;6.70;99.90;;;;;;4967767;28;19930;-60
2022/01/27 08:04:42;;;;;;;;;;;6.50;99.90;;;;;;4971106;28;19981;-61
2022/01/27 08:07:08;;;;;;;;;;;6.60;99.90;;;;;;4981545;28;19934;-58
2022/01/27 08:09:33;;;;;;;;;;;7.60;99.90;;;;;;4968153;28;19952;-59
2022/01/27 08:11:59;;;;;;;;;;;6.60;99.90;;;;;;4967905;28;19934;-58
2022/01/27 08:14:25;;;;;;;;;;;7.10;99.90;;;;;;4983933;28;19980;-57
2022/01/27 08:16:50;;;;;;;;;;;6.70;99.90;;;;;;4987013;28;19930;-58
2022/01/27 08:19:16;;;;;;;;;;;6.70;99.90;;;;;;4991223;28;19941;-58
2022/01/27 08:21:41;;;;;;;;;;;6.70;99.90;;;;;;4984732;28;19930;-59
2022/01/27 08:24:07;;;;;;;;;;;6.80;99.90;;;;;;4976367;28;19934;-58
2022/01/27 08:26:43;;;;;;;;;;;6.90;99.90;;;;;;4974967;28;20004;-58
2022/01/27 08:32:02;;;;;;;;;;;6.90;99.90;;;;;;4980809;28;19930;-58
2022/01/27 08:34:34;;;;;;;;;;;6.90;99.90;;;;;;4971001;28;19930;-58
2022/01/27 08:37:02;;;;;;;;;;;7.00;99.90;;;;;;4975908;28;20015;-58
2022/01/27 08:39:28;;;;;;;;;;;7.50;99.90;;;;;;4982383;28;19934;-58
2022/01/27 08:41:53;;;;;;;;;;;7.90;99.90;;;;;;4972931;28;19937;-57
2022/01/27 08:44:19;;;;;;;;;;;7.10;99.90;;;;;;4969264;28;19941;-58
2022/01/27 08:46:45;;;;;;;;;;;7.20;99.90;;;;;;4974557;28;20375;-60
2022/01/27 08:49:11;;;;;;;;;;;7.30;99.90;;;;;;4972250;28;20039;-60
2022/01/27 08:51:36;;;;;;;;;;;7.30;99.90;;;;;;4986548;28;19930;-61
2022/01/27 08:54:02;;;;;;;;;;;7.30;99.90;;;;;;4980221;28;19930;-62
2022/01/27 08:56:28;;;;;;;;;;;7.30;99.90;;;;;;4968479;28;19930;-58
2022/01/27 08:58:57;;;;;;;;;;;7.50;99.90;;;;;;4976452;28;19930;-60
2022/01/27 09:01:24;;;;;;;;;;;7.40;99.90;;;;;;4976456;28;20406;-57
2022/01/27 09:03:50;;;;;;;;;;;7.40;99.90;;;;;;4974305;28;19936;-58
2022/01/27 09:06:18;;;;;;;;;;;7.50;99.90;;;;;;4992779;28;19936;-58
2022/01/27 09:08:44;;;;;;;;;;;7.50;99.90;;;;;;4982081;28;19930;-58
2022/01/27 09:11:10;;;;;;;;;;;7.50;99.90;;;;;;4964307;28;20313;-59
2022/01/27 09:13:37;;;;;;;;;;;7.50;99.90;;;;;;4966320;28;20015;-60
2022/01/27 09:16:03;;;;;;;;;;;7.60;99.90;;;;;;5022467;28;20515;-58
2022/01/27 09:18:29;;;;;;;;;;;7.60;99.90;;;;;;5053673;28;20366;-66
2022/01/27 09:20:56;;;;;;;;;;;7.60;99.90;;;;;;4995140;28;19937;-63
2022/01/27 09:23:22;;;;;;;;;;;7.60;99.90;;;;;;4980948;28;20378;-62
2022/01/27 09:25:49;;;;;;;;;;;7.60;99.90;;;;;;4981400;28;19934;-67
2022/01/27 09:28:15;;;;;;;;;;;7.70;99.90;;;;;;4980383;28;19953;-67
2022/01/27 09:30:42;;;;;;;;;;;7.70;99.90;;;;;;4966169;28;19930;-63
2022/01/27 09:33:07;;;;;;;;;;;8.00;99.90;;;;;;4966761;28;19934;-63
2022/01/27 09:35:33;;;;;;;;;;;7.70;99.90;;;;;;4962522;28;20063;-60
2022/01/27 09:37:59;;;;;;;;;;;7.70;99.90;;;;;;4963148;28;19984;-59
2022/01/27 09:40:25;;;;;;;;;;;8.20;99.90;;;;;;4969208;28;20048;-58
2022/01/27 09:42:53;;;;;;;;;;;7.70;99.90;;;;;;4965083;28;20363;-58
2022/01/27 09:45:19;;;;;;;;;;;7.70;99.90;;;;;;4963259;28;20024;-59
2022/01/27 09:47:54;;;;;;;;;;;7.80;99.90;;;;;;4961553;28;19930;-58
2022/01/27 09:50:35;;;;;;;;;;;7.80;99.90;;;;;;4986113;28;19930;-58
2022/01/27 09:53:00;;;;;;;;;;;8.20;99.90;;;;;;4977688;28;19975;-58
2022/01/27 09:55:26;;;;;;;;;;;7.90;99.90;;;;;;4981034;28;19930;-58
2022/01/27 09:57:53;;;;;;;;;;;8.00;99.90;;;;;;4981954;28;20024;-58
2022/01/27 10:00:19;;;;;;;;;;;8.10;99.90;;;;;;4972136;28;19926;-59
2022/01/27 10:03:04;;;;;;;;;;;8.20;99.90;;;;;;4966302;28;19934;-60
2022/01/27 10:05:30;;;;;;;;;;;8.10;99.90;;;;;;4968757;28;19929;-58
2022/01/27 10:08:08;;;;;;;;;;;8.20;99.90;;;;;;4966700;28;19956;-57
2022/01/27 10:10:41;;;;;;;;;;;8.20;99.90;;;;;;4967082;28;19930;-60
2022/01/27 10:13:10;;;;;;;;;;;8.30;99.90;;;;;;4978442;28;19933;-59
2022/01/27 10:15:37;;;;;;;;;;;8.30;99.90;;;;;;4986076;28;20362;-58
2022/01/27 10:18:03;;;;;;;;;;;8.40;99.90;;;;;;4962603;28;19930;-57
2022/01/27 10:20:28;;;;;;;;;;;8.60;99.90;;;;;;4974549;28;20245;-58
2022/01/27 10:23:13;;;;;;;;;;;8.40;99.90;;;;;;4975900;28;19941;-61
2022/01/27 10:25:46;;;;;;;;;;;8.40;99.90;;;;;;4967592;28;20376;-61
2022/01/27 10:28:26;;;;;;;;;;;8.50;99.90;;;;;;4964959;28;20315;-58
2022/01/27 10:30:58;;;;;;;;;;;8.50;99.90;;;;;;4969484;28;19938;-58
2022/01/27 10:33:24;;;;;;;;;;;8.50;99.90;;;;;;4973519;28;19930;-58
2022/01/27 10:35:50;;;;;;;;;;;8.50;99.90;;;;;;4979579;28;19934;-57
2022/01/27 10:38:16;;;;;;;;;;;8.60;99.90;;;;;;4978435;28;19930;-58
2022/01/27 10:40:43;;;;;;;;;;;8.70;99.90;;;;;;4978560;28;20563;-58
2022/01/27 10:43:19;;;;;;;;;;;8.50;99.90;;;;;;4974345;28;19930;-59
2022/01/27 10:46:15;;;;;;;;;;;8.50;99.90;;;;;;4974701;28;19937;-60
2022/01/27 10:48:49;;;;;;;;;;;8.60;99.90;;;;;;4985579;28;19936;-64
2022/01/27 10:51:24;;;;;;;;;;;8.60;99.90;;;;;;4985666;28;20045;-68
2022/01/27 10:53:56;;;;;;;;;;;8.60;99.90;;;;;;4984554;28;19937;-65
2022/01/27 10:56:26;;;;;;;;;;;8.70;99.90;;;;;;4980063;28;20678;-63
2022/01/27 10:58:53;;;;;;;;;;;8.80;99.90;;;;;;4984493;28;19982;-69
2022/01/27 11:01:26;;;;;;;;;;;8.80;99.90;;;;;;4984616;28;19930;-63
2022/01/27 11:03:53;;;;;;;;;;;8.90;99.90;;;;;;4981040;28;20006;-62
2022/01/27 11:06:19;;;;;;;;;;;8.90;99.90;;;;;;4981246;28;19929;-59
2022/01/27 11:08:46;;;;;;;;;;;8.90;99.90;;;;;;4978906;28;19936;-65
2022/01/27 11:11:13;;;;;;;;;;;9.00;99.90;;;;;;4983391;28;20544;-65
2022/01/27 11:13:38;;;;;;;;;;;9.00;99.90;;;;;;4977174;28;20411;-64
2022/01/27 11:16:05;;;;;;;;;;;9.20;99.90;;;;;;4971062;28;19930;-58
2022/01/27 11:18:31;;;;;;;;;;;9.00;99.90;;;;;;4967940;28;19978;-59
2022/01/27 11:21:08;;;;;;;;;;;9.10;99.90;;;;;;4984475;28;19976;-61
2022/01/27 11:26:07;;;;;;;;;;;9.20;99.90;;;;;;4964458;28;20013;-61
2022/01/27 11:28:33;;;;;;;;;;;9.20;99.90;;;;;;4973211;28;20032;-63
2022/01/27 11:31:22;;;;;;;;;;;9.20;99.90;;;;;;4978332;28;19936;-60
2022/01/27 11:34:17;;;;;;;;;;;9.30;99.90;;;;;;4991246;28;19959;-62
2022/01/27 11:37:02;;;;;;;;;;;9.30;99.90;;;;;;4988512;28;19928;-61
2022/01/27 11:39:47;;;;;;;;;;;9.40;99.90;;;;;;4997203;28;19984;-60
2022/01/27 11:42:12;;;;;;;;;;;9.40;99.90;;;;;;4985077;28;20451;-62
2022/01/27 11:44:39;;;;;;;;;;;9.30;99.90;;;;;;5021335;28;19929;-57
2022/01/27 11:47:08;;;;;;;;;;;9.30;99.90;;;;;;5021876;28;19929;-58
2022/01/27 11:49:55;;;;;;;;;;;9.40;99.90;;;;;;5017459;28;20017;-58
2022/01/27 11:52:20;;;;;;;;;;;9.40;99.90;;;;;;4994053;28;19937;-58
2022/01/27 11:54:46;;;;;;;;;;;9.40;99.90;;;;;;4964830;28;19934;-59
2022/01/27 11:57:32;;;;;;;;;;;9.40;99.90;;;;;;4965048;28;19930;-58
2022/01/27 12:00:11;;;;;;;;;;;9.50;99.90;;;;;;4991332;28;20414;-59
2022/01/27 12:02:55;;;;;;;;;;;9.40;99.90;;;;;;4964867;28;19930;-59
2022/01/27 12:05:21;;;;;;;;;;;9.40;99.90;;;;;;4980317;28;19945;-59
2022/01/27 12:08:05;;;;;;;;;;;9.40;99.90;;;;;;4967608;28;19930;-59
2022/01/27 12:10:54;;;;;;;;;;;9.40;99.90;;;;;;4975803;28;19941;-61
2022/01/27 12:16:09;;;;;;;;;;;9.40;99.90;;;;;;4981703;28;19983;-60
2022/01/27 12:18:38;;;;;;;;;;;9.30;99.90;;;;;;4979396;28;20307;-59
2022/01/27 12:21:22;;;;;;;;;;;9.30;99.90;;;;;;4963890;28;19930;-58
2022/01/27 12:24:07;;;;;;;;;;;9.20;99.90;;;;;;5067425;28;19929;-58
2022/01/27 12:26:48;;;;;;;;;;;9.30;99.90;;;;;;4965793;28;20149;-58
2022/01/27 12:29:21;;;;;;;;;;;10.00;99.90;;;;;;5002437;28;19928;-58
2022/01/27 12:31:48;;;;;;;;;;;9.10;99.90;;;;;;4993915;28;20706;-58
2022/01/27 12:34:13;;;;;;;;;;;9.10;99.90;;;;;;4980502;28;20449;-59
2022/01/27 12:36:39;;;;;;;;;;;9.10;99.90;;;;;;4991146;28;19960;-58
2022/01/27 12:39:05;;;;;;;;;;;9.00;99.90;;;;;;4982116;28;20509;-60
2022/01/27 12:41:37;;;;;;;;;;;9.00;99.90;;;;;;4981795;28;19972;-58
2022/01/27 12:44:09;;;;;;;;;;;9.10;99.90;;;;;;4981865;28;19994;-59
2022/01/27 12:46:36;;;;;;;;;;;9.10;99.90;;;;;;4981258;28;20344;-59
2022/01/27 12:49:03;;;;;;;;;;;9.10;99.90;;;;;;4979917;28;20903;-58
2022/01/27 12:51:45;;;;;;;;;;;9.00;99.90;;;;;;4981422;28;20352;-62
2022/01/27 12:54:11;;;;;;;;;;;9.00;99.90;;;;;;4974030;28;19987;-59
2022/01/27 12:56:37;;;;;;;;;;;9.10;99.90;;;;;;4978273;28;19933;-61
2022/01/27 12:59:11;;;;;;;;;;;9.10;99.90;;;;;;4980734;28;19937;-62
2022/01/27 13:01:37;;;;;;;;;;;9.20;99.90;;;;;;4979153;28;19964;-60
2022/01/27 13:04:03;;;;;;;;;;;9.30;99.90;;;;;;4981194;28;19981;-60
2022/01/27 13:06:29;;;;;;;;;;;10.40;99.90;;;;;;4982755;28;19930;-61
2022/01/27 13:09:11;;;;;;;;;;;9.50;99.90;;;;;;4971233;28;19991;-61
2022/01/27 13:11:39;;;;;;;;;;;9.60;99.90;;;;;;4979479;28;19930;-61
2022/01/27 13:14:05;;;;;;;;;;;9.50;99.90;;;;;;4963775;28;19926;-59
2022/01/27 13:16:39;;;;;;;;;;;10.00;99.90;;;;;;4972423;28;19983;-58
2022/01/27 13:19:10;;;;;;;;;;;9.50;99.90;;;;;;4968108;28;20025;-58
2022/01/27 13:21:38;;;;;;;;;;;9.40;99.90;;;;;;4971304;28;19930;-58
2022/01/27 13:24:16;;;;;;;;;;;9.40;99.90;;;;;;4978154;28;20376;-58
2022/01/27 13:26:44;;;;;;;;;;;9.50;99.90;;;;;;4963569;28;19930;-57
2022/01/27 13:29:14;;;;;;;;;;;9.50;99.90;;;;;;4991514;28;20014;-58
2022/01/27 13:31:39;;;;;;;;;;;9.40;99.90;;;;;;5014154;28;20568;-58
2022/01/27 13:34:05;;;;;;;;;;;9.90;99.90;;;;;;4966932;28;20040;-59
2022/01/27 13:36:36;;;;;;;;;;;9.50;99.90;;;;;;4976882;28;19930;-58
2022/01/27 13:41:35;;;;;;;;;;;9.50;99.90;;;;;;4979725;28;20371;-59
2022/01/27 13:44:03;;;;;;;;;;;9.30;99.90;;;;;;4974121;28;19937;-58
2022/01/27 13:46:34;;;;;;;;;;;9.40;99.90;;;;;;4971628;28;20126;-58
2022/01/27 13:49:23;;;;;;;;;;;9.40;99.90;;;;;;4974512;28;20209;-58
2022/01/27 13:51:51;;;;;;;;;;;9.40;99.90;;;;;;4972259;28;19936;-59
2022/01/27 13:54:18;;;;;;;;;;;9.40;99.90;;;;;;4974491;28;19930;-58
2022/01/27 13:56:45;;;;;;;;;;;9.40;99.90;;;;;;4969255;28;19933;-58
2022/01/27 13:59:15;;;;;;;;;;;9.50;99.90;;;;;;4978672;28;20044;-59
2022/01/27 14:01:41;;;;;;;;;;;9.40;99.90;;;;;;4973614;28;19936;-59
2022/01/27 14:04:07;;;;;;;;;;;9.40;99.90;;;;;;4975556;28;19979;-58
2022/01/27 14:06:46;;;;;;;;;;;9.40;99.90;;;;;;4979175;28;19930;-57
2022/01/27 14:09:15;;;;;;;;;;;9.50;99.90;;;;;;5030209;28;19937;-60
2022/01/27 14:11:41;;;;;;;;;;;9.30;99.90;;;;;;4970860;28;19973;-62
2022/01/27 14:14:08;;;;;;;;;;;9.20;99.90;;;;;;4961722;28;19937;-58
2022/01/27 14:16:34;;;;;;;;;;;9.20;99.90;;;;;;4979950;28;19937;-58
2022/01/27 14:19:09;;;;;;;;;;;9.20;99.90;;;;;;4981173;28;19972;-57
2022/01/27 14:21:40;;;;;;;;;;;9.20;99.90;;;;;;4966169;28;19936;-58
2022/01/27 14:24:11;;;;;;;;;;;9.20;99.90;;;;;;4966432;28;19938;-58
2022/01/27 14:26:41;;;;;;;;;;;9.20;99.90;;;;;;4970936;28;20360;-58
2022/01/27 14:29:07;;;;;;;;;;;9.10;99.90;;;;;;4990145;28;19926;-59
2022/01/27 14:31:34;;;;;;;;;;;9.00;99.90;;;;;;4983336;28;20272;-58
2022/01/27 14:33:59;;;;;;;;;;;8.90;99.90;;;;;;4980728;28;19930;-58
2022/01/27 14:36:25;;;;;;;;;;;9.00;99.90;;;;;;4974283;28;20307;-58
2022/01/27 14:38:51;;;;;;;;;;;8.90;99.90;;;;;;4975663;28;19995;-58
2022/01/27 14:41:17;;;;;;;;;;;8.80;99.90;;;;;;4976495;28;19929;-58
2022/01/27 14:43:43;;;;;;;;;;;8.80;99.90;;;;;;4974026;28;19931;-59
2022/01/27 14:46:12;;;;;;;;;;;8.80;99.90;;;;;;4975070;28;20295;-59
2022/01/27 14:48:40;;;;;;;;;;;8.70;99.90;;;;;;4975629;28;19934;-58
2022/01/27 14:51:09;;;;;;;;;;;8.60;99.90;;;;;;4975388;28;19930;-58
2022/01/27 14:53:35;;;;;;;;;;;8.50;99.90;;;;;;4975186;28;19926;-58
2022/01/27 14:56:02;;;;;;;;;;;8.40;99.90;;;;;;4975610;28;19930;-60
2022/01/27 14:58:27;;;;;;;;;;;8.50;99.90;;;;;;4975073;28;19960;-58
2022/01/27 15:00:53;;;;;;;;;;;8.50;99.90;;;;;;4974051;28;19934;-58
2022/01/27 15:03:18;;;;;;;;;;;8.50;99.90;;;;;;4972712;28;20016;-58
2022/01/27 15:05:44;;;;;;;;;;;8.80;99.90;;;;;;4974047;28;19937;-59
2022/01/27 15:08:10;;;;;;;;;;;8.40;99.90;;;;;;4975308;28;20379;-58
2022/01/27 15:10:38;;;;;;;;;;;8.40;99.90;;;;;;4975186;28;19938;-60
2022/01/27 15:13:04;;;;;;;;;;;8.40;99.90;;;;;;4973372;28;19936;-58
2022/01/27 15:21:00;;;;;;;;;;;8.30;99.90;;;;;;4974134;28;19941;-58
2022/01/27 15:23:27;;;;;;;;;;;8.20;99.90;;;;;;4974151;28;19937;-61
2022/01/27 15:25:53;;;;;;;;;;;8.20;99.90;;;;;;4976719;28;19930;-58
2022/01/27 15:28:19;;;;;;;;;;;8.10;99.90;;;;;;4978694;28;19937;-59
2022/01/27 15:30:45;;;;;;;;;;;8.00;99.90;;;;;;4984719;28;19929;-63
2022/01/27 15:33:11;;;;;;;;;;;8.00;99.90;;;;;;4969248;28;19984;-58
2022/01/27 15:35:37;;;;;;;;;;;8.00;99.90;;;;;;4963873;28;19930;-63